createdAt,value
2019-03-08T00:00:52.933Z,9.60
2019-03-08T00:03:23.623Z,9.40
2019-03-08T00:05:51.186Z,9.40
2019-03-08T00:08:19.735Z,9.30
2019-03-08T00:10:58.092Z,9.30
2019-03-08T00:13:25.684Z,9.30
2019-03-08T00:15:53.267Z,9.40
2019-03-08T00:18:20.931Z,9.40
2019-03-08T00:20:48.445Z,9.40
2019-03-08T00:23:15.925Z,9.50
2019-03-08T00:25:43.717Z,9.80
2019-03-08T00:28:11.557Z,9.80
2019-03-08T00:30:39.074Z,9.90
2019-03-08T00:33:07.744Z,9.90
2019-03-08T00:35:35.223Z,9.90
2019-03-08T00:38:05.024Z,9.90
2019-03-08T00:40:32.489Z,9.80
2019-03-08T00:43:00.229Z,9.80
2019-03-08T00:45:27.642Z,9.80
2019-03-08T00:47:55.163Z,9.80
2019-03-08T00:50:22.500Z,9.70
2019-03-08T00:52:49.993Z,9.70
2019-03-08T00:55:17.707Z,9.60
2019-03-08T00:57:45.171Z,9.50
2019-03-08T01:00:14.825Z,9.50
2019-03-08T01:02:43.434Z,9.40
2019-03-08T01:05:11.466Z,9.30
2019-03-08T01:07:40.221Z,9.20
2019-03-08T01:10:12.147Z,9.00
2019-03-08T01:12:39.840Z,8.90
2019-03-08T01:15:11.091Z,8.80
2019-03-08T01:17:38.960Z,8.70
2019-03-08T01:20:08.529Z,8.60
2019-03-08T01:22:36.171Z,8.50
2019-03-08T01:25:04.622Z,8.50
2019-03-08T01:27:32.105Z,8.50
2019-03-08T01:29:59.433Z,8.40
2019-03-08T01:32:27.005Z,8.40
2019-03-08T01:34:54.697Z,8.30
2019-03-08T01:37:22.190Z,8.30
2019-03-08T01:39:49.766Z,8.40
2019-03-08T01:42:17.113Z,8.30
2019-03-08T01:44:45.117Z,8.30
2019-03-08T01:47:12.607Z,8.30
2019-03-08T01:49:40.234Z,8.30
2019-03-08T01:52:07.787Z,8.30
2019-03-08T01:54:35.219Z,8.30
2019-03-08T01:57:02.984Z,8.30
2019-03-08T01:59:30.545Z,8.40
2019-03-08T02:01:57.898Z,8.40
2019-03-08T02:04:25.485Z,8.40
2019-03-08T02:06:53.147Z,8.50
2019-03-08T02:09:20.645Z,8.50
2019-03-08T02:11:48.126Z,8.40
2019-03-08T02:14:15.677Z,8.40
2019-03-08T02:16:43.284Z,8.30
2019-03-08T02:19:10.734Z,8.20
2019-03-08T02:21:38.177Z,8.30
2019-03-08T02:24:05.689Z,8.20
2019-03-08T02:26:33.392Z,8.20
2019-03-08T02:29:00.772Z,8.10
2019-03-08T02:31:28.534Z,8.00
2019-03-08T02:33:55.985Z,7.90
2019-03-08T02:36:23.451Z,7.90
2019-03-08T02:38:51.104Z,8.00
2019-03-08T02:41:18.706Z,8.20
2019-03-08T02:43:46.055Z,8.00
2019-03-08T02:46:13.514Z,8.10
2019-03-08T02:48:41.116Z,8.20
2019-03-08T02:51:08.604Z,8.20
2019-03-08T02:53:36.859Z,8.20
2019-03-08T02:56:12.448Z,8.30
2019-03-08T02:58:39.981Z,8.30
2019-03-08T03:01:07.410Z,8.30
2019-03-08T03:03:34.766Z,8.40
2019-03-08T03:06:02.226Z,8.30
2019-03-08T03:08:29.711Z,8.40
2019-03-08T03:10:57.162Z,8.30
2019-03-08T03:13:25.378Z,8.40
2019-03-08T03:15:52.732Z,8.40
2019-03-08T03:18:21.457Z,8.40
2019-03-08T03:20:49.078Z,8.50
2019-03-08T03:23:16.418Z,8.50
2019-03-08T03:25:43.909Z,8.50
2019-03-08T03:28:11.376Z,8.60
2019-03-08T03:30:38.883Z,8.60
2019-03-08T03:33:06.258Z,8.60
2019-03-08T03:35:33.650Z,8.60
2019-03-08T03:38:02.941Z,8.70
2019-03-08T03:40:30.713Z,8.60
2019-03-08T03:43:01.857Z,8.80
2019-03-08T03:45:29.441Z,8.80
2019-03-08T03:47:56.765Z,8.90
2019-03-08T03:50:24.520Z,8.90
2019-03-08T03:52:52.024Z,8.90
2019-03-08T03:55:19.667Z,8.90
2019-03-08T03:57:47.076Z,8.90
2019-03-08T04:00:15.716Z,9.00
2019-03-08T04:02:43.540Z,9.00
2019-03-08T04:05:11.523Z,9.10
2019-03-08T04:07:39.134Z,9.10
2019-03-08T04:10:08.216Z,9.10
2019-03-08T04:12:35.733Z,9.20
2019-03-08T04:15:06.183Z,9.20
2019-03-08T04:17:33.893Z,9.40
2019-03-08T04:20:01.927Z,9.50
2019-03-08T04:22:29.666Z,9.60
2019-03-08T04:24:57.023Z,9.70
2019-03-08T04:27:24.581Z,9.80
2019-03-08T04:29:53.024Z,9.90
2019-03-08T04:32:21.021Z,9.90
2019-03-08T04:34:48.478Z,10.00
2019-03-08T04:37:15.884Z,10.00
2019-03-08T04:39:43.568Z,10.10
2019-03-08T04:42:10.935Z,10.10
2019-03-08T04:44:38.419Z,10.10
2019-03-08T04:47:05.989Z,10.10
2019-03-08T04:49:33.425Z,10.10
2019-03-08T04:52:00.899Z,10.10
2019-03-08T04:54:29.554Z,10.20
2019-03-08T04:56:56.957Z,10.20
2019-03-08T04:59:24.317Z,10.20
2019-03-08T05:01:51.703Z,10.20
2019-03-08T05:04:19.249Z,10.20
2019-03-08T05:06:46.559Z,10.10
2019-03-08T05:09:14.191Z,10.10
2019-03-08T05:11:41.594Z,10.20
2019-03-08T05:14:09.098Z,10.20
2019-03-08T05:16:36.436Z,10.20
2019-03-08T05:19:03.864Z,10.20
2019-03-08T05:21:31.309Z,10.20
2019-03-08T05:23:58.647Z,10.20
2019-03-08T05:26:26.020Z,10.20
2019-03-08T05:28:53.427Z,10.30
2019-03-08T05:31:20.876Z,10.30
2019-03-08T05:33:48.199Z,10.30
2019-03-08T05:36:15.746Z,10.40
2019-03-08T05:38:43.170Z,10.40
2019-03-08T05:41:10.475Z,10.40
2019-03-08T05:43:37.866Z,10.50
2019-03-08T05:46:05.185Z,10.50
2019-03-08T05:48:32.712Z,10.50
2019-03-08T05:51:00.100Z,10.60
2019-03-08T05:53:27.425Z,10.70
2019-03-08T05:55:54.739Z,10.60
2019-03-08T05:58:22.108Z,10.60
2019-03-08T06:00:49.459Z,10.80
2019-03-08T06:03:16.777Z,10.80
2019-03-08T06:05:44.227Z,10.80
2019-03-08T06:08:11.623Z,10.90
2019-03-08T06:10:39.786Z,10.90
2019-03-08T06:13:08.346Z,10.80
2019-03-08T06:15:36.296Z,10.90
2019-03-08T06:18:03.903Z,10.90
2019-03-08T06:20:31.465Z,11.00
2019-03-08T06:22:58.907Z,11.00
2019-03-08T06:25:26.239Z,11.10
2019-03-08T06:27:53.628Z,11.10
2019-03-08T06:30:21.216Z,11.10
2019-03-08T06:32:49.006Z,11.20
2019-03-08T06:35:16.336Z,11.30
2019-03-08T06:37:43.873Z,11.30
2019-03-08T06:40:11.420Z,11.40
2019-03-08T06:42:39.221Z,11.40
2019-03-08T06:45:09.001Z,11.50
2019-03-08T06:47:36.627Z,11.50
2019-03-08T06:50:04.836Z,11.60
2019-03-08T06:52:32.242Z,11.50
2019-03-08T06:54:59.715Z,11.50
2019-03-08T06:57:27.124Z,11.50
2019-03-08T06:59:59.372Z,11.50
2019-03-08T07:02:26.897Z,11.50
2019-03-08T07:04:54.441Z,11.40
2019-03-08T07:07:21.746Z,11.40
2019-03-08T07:09:49.045Z,11.40
2019-03-08T07:12:16.372Z,11.40
2019-03-08T07:14:43.876Z,11.50
2019-03-08T07:17:11.300Z,11.50
2019-03-08T07:19:48.079Z,11.60
2019-03-08T07:22:35.045Z,11.60
2019-03-08T07:25:18.367Z,11.70
2019-03-08T07:27:58.834Z,11.80
2019-03-08T07:30:46.226Z,11.90
2019-03-08T07:33:20.344Z,12.00
2019-03-08T07:35:55.451Z,12.10
2019-03-08T07:38:31.404Z,12.20
2019-03-08T07:41:16.834Z,12.20
2019-03-08T07:43:58.883Z,12.30
2019-03-08T07:46:33.778Z,12.40
2019-03-08T07:49:16.918Z,12.60
2019-03-08T07:51:55.358Z,12.80
2019-03-08T07:54:41.597Z,13.00
2019-03-08T07:57:27.363Z,13.10
2019-03-08T08:00:29.938Z,13.30
2019-03-08T08:03:34.773Z,13.40
2019-03-08T08:06:06.721Z,13.50
2019-03-08T08:08:51.621Z,13.40
2019-03-08T08:11:30.246Z,13.50
2019-03-08T08:14:17.276Z,13.70
2019-03-08T08:16:52.717Z,13.90
2019-03-08T08:19:42.806Z,14.10
2019-03-08T08:22:25.657Z,14.20
2019-03-08T08:25:02.987Z,14.30
2019-03-08T08:27:38.836Z,14.40
2019-03-08T08:30:15.233Z,14.50
2019-03-08T08:33:01.780Z,14.60
2019-03-08T08:35:47.362Z,14.60
2019-03-08T08:38:21.336Z,14.50
2019-03-08T08:41:11.373Z,14.60
2019-03-08T08:44:01.376Z,15.40
2019-03-08T08:46:55.015Z,16.50
2019-03-08T08:49:42.188Z,17.00
2019-03-08T08:52:35.709Z,17.50
2019-03-08T08:55:10.850Z,17.60
2019-03-08T08:57:46.792Z,17.20
2019-03-08T09:00:36.881Z,17.00
2019-03-08T09:03:14.034Z,16.80
2019-03-08T09:06:03.774Z,16.90
2019-03-08T09:08:42.756Z,16.90
2019-03-08T09:11:19.038Z,16.90
2019-03-08T09:13:53.802Z,17.10
2019-03-08T09:16:41.685Z,17.10
2019-03-08T09:19:25.003Z,16.90
2019-03-08T09:22:02.288Z,16.80
2019-03-08T09:24:36.160Z,16.80
2019-03-08T09:27:41.537Z,16.60
2019-03-08T09:30:17.147Z,16.50
2019-03-08T09:33:05.119Z,16.50
2019-03-08T09:35:41.530Z,16.40
2019-03-08T09:38:27.310Z,16.40
2019-03-08T09:41:15.217Z,16.50
2019-03-08T09:44:01.268Z,16.50
2019-03-08T09:46:51.028Z,16.40
2019-03-08T09:49:44.288Z,16.40
2019-03-08T09:52:34.552Z,16.40
2019-03-08T09:55:24.388Z,16.30
2019-03-08T09:58:08.844Z,16.20
2019-03-08T10:00:42.908Z,16.20
2019-03-08T10:03:16.704Z,16.10
2019-03-08T10:06:03.756Z,16.00
2019-03-08T10:08:49.385Z,16.00
2019-03-08T10:11:31.416Z,16.00
2019-03-08T10:14:25.295Z,15.90
2019-03-08T10:17:24.254Z,15.90
2019-03-08T10:20:04.133Z,15.90
2019-03-08T10:23:00.527Z,15.90
2019-03-08T10:25:54.669Z,16.00
2019-03-08T10:28:44.615Z,16.10
2019-03-08T10:31:18.734Z,16.30
2019-03-08T10:33:56.957Z,16.50
2019-03-08T10:36:59.925Z,16.70
2019-03-08T10:39:54.302Z,16.90
2019-03-08T10:42:41.476Z,17.00
2019-03-08T10:45:29.102Z,17.20
2019-03-08T10:48:05.873Z,17.00
2019-03-08T10:50:41.943Z,17.00
2019-03-08T10:53:32.818Z,17.30
2019-03-08T10:56:20.057Z,17.60
2019-03-08T10:58:59.939Z,18.00
2019-03-08T11:01:44.113Z,19.10
2019-03-08T11:04:21.657Z,20.40
2019-03-08T11:07:11.394Z,20.80
2019-03-08T11:09:57.265Z,20.80
2019-03-08T11:12:42.948Z,20.30
2019-03-08T11:15:29.243Z,20.60
2019-03-08T11:18:08.733Z,21.60
2019-03-08T11:20:54.334Z,22.10
2019-03-08T11:23:42.632Z,22.90
2019-03-08T11:26:35.451Z,23.50
2019-03-08T11:29:23.170Z,23.50
2019-03-08T11:32:10.322Z,23.30
2019-03-08T11:34:58.216Z,24.20
2019-03-08T11:37:39.841Z,27.30
2019-03-08T11:40:27.486Z,29.20
2019-03-08T11:43:04.735Z,28.50
2019-03-08T11:45:55.769Z,26.80
2019-03-08T11:49:00.755Z,25.00
2019-03-08T11:51:46.012Z,23.50
2019-03-08T11:54:29.733Z,22.70
2019-03-08T11:57:15.182Z,22.80
2019-03-08T11:59:55.485Z,22.20
2019-03-08T12:02:37.590Z,21.20
2019-03-08T12:05:16.363Z,20.40
2019-03-08T12:07:51.281Z,20.50
2019-03-08T12:10:26.921Z,21.50
2019-03-08T12:13:08.087Z,22.40
2019-03-08T12:15:54.921Z,23.90
2019-03-08T12:18:34.334Z,25.20
2019-03-08T12:21:26.049Z,26.90
2019-03-08T12:24:17.007Z,28.20
2019-03-08T12:26:57.410Z,30.80
2019-03-08T12:29:35.079Z,32.70
2019-03-08T12:32:12.178Z,33.80
2019-03-08T12:35:01.951Z,34.90
2019-03-08T12:37:52.855Z,35.60
2019-03-08T12:40:42.800Z,36.10
2019-03-08T12:43:28.202Z,35.70
2019-03-08T12:46:21.121Z,36.50
2019-03-08T12:48:57.918Z,37.90
2019-03-08T12:51:29.687Z,38.40
2019-03-08T12:54:05.264Z,39.10
2019-03-08T12:56:40.537Z,40.10
2019-03-08T12:59:27.346Z,39.80
2019-03-08T13:02:05.597Z,39.60
2019-03-08T13:04:46.798Z,39.40
2019-03-08T13:07:32.459Z,39.10
2019-03-08T13:10:18.393Z,39.00
2019-03-08T13:12:46.081Z,38.10
2019-03-08T13:15:13.990Z,36.90
2019-03-08T13:17:41.319Z,36.40
2019-03-08T13:20:13.866Z,35.00
2019-03-08T13:22:42.220Z,32.30
2019-03-08T13:25:09.950Z,30.40
2019-03-08T13:27:37.887Z,30.50
2019-03-08T13:30:13.332Z,31.30
2019-03-08T13:32:40.673Z,31.50
2019-03-08T13:35:09.403Z,31.30
2019-03-08T13:37:36.854Z,32.20
2019-03-08T13:40:05.343Z,32.40
2019-03-08T13:42:32.691Z,31.10
2019-03-08T13:45:00.053Z,30.60
2019-03-08T13:47:28.358Z,30.60
2019-03-08T13:49:55.992Z,30.40
2019-03-08T13:52:23.366Z,30.60
2019-03-08T13:54:50.740Z,30.80
2019-03-08T13:57:18.615Z,31.40
2019-03-08T13:59:46.298Z,31.90
2019-03-08T14:02:13.865Z,32.70
2019-03-08T14:04:42.139Z,33.10
2019-03-08T14:07:09.719Z,33.30
2019-03-08T14:09:37.836Z,33.30
2019-03-08T14:12:05.358Z,32.90
2019-03-08T14:14:32.714Z,33.00
2019-03-08T14:17:00.530Z,33.30
2019-03-08T14:19:28.566Z,33.40
2019-03-08T14:21:55.967Z,33.50
2019-03-08T14:24:23.397Z,32.90
2019-03-08T14:26:51.734Z,31.00
2019-03-08T14:29:22.437Z,29.80
2019-03-08T14:32:21.313Z,29.30
2019-03-08T14:34:53.573Z,29.10
2019-03-08T14:37:19.852Z,28.50
2019-03-08T14:39:49.108Z,28.30
2019-03-08T14:42:41.512Z,27.70
2019-03-08T14:45:19.105Z,27.20
2019-03-08T14:47:49.450Z,26.70
2019-03-08T14:50:17.384Z,26.10
2019-03-08T14:52:45.456Z,25.00
2019-03-08T14:55:19.114Z,24.40
2019-03-08T14:57:46.303Z,23.30
2019-03-08T15:03:48.815Z,21.20
2019-03-08T15:06:17.078Z,19.90
2019-03-08T15:08:44.729Z,19.00
2019-03-08T15:11:12.634Z,18.40
2019-03-08T15:13:40.651Z,18.00
2019-03-08T15:16:08.376Z,17.70
2019-03-08T15:18:35.967Z,17.50
2019-03-08T15:21:03.429Z,17.20
2019-03-08T15:23:30.862Z,16.90
2019-03-08T15:25:59.025Z,16.60
2019-03-08T15:28:28.127Z,16.40
2019-03-08T15:30:57.617Z,16.00
2019-03-08T15:33:25.958Z,15.60
2019-03-08T15:35:55.314Z,15.30
2019-03-08T15:38:23.274Z,15.10
2019-03-08T15:40:50.878Z,14.80
2019-03-08T15:43:18.309Z,14.60
2019-03-08T15:45:46.176Z,14.40
2019-03-08T15:48:14.520Z,14.20
2019-03-08T15:50:46.873Z,14.10
2019-03-08T15:53:12.956Z,13.90
2019-03-08T15:55:41.561Z,13.80
2019-03-08T15:58:09.218Z,13.80
2019-03-08T16:00:36.635Z,13.70
2019-03-08T16:03:04.312Z,13.70
2019-03-08T16:05:31.713Z,13.70
2019-03-08T16:08:03.711Z,13.80
2019-03-08T16:10:31.703Z,13.70
2019-03-08T16:13:02.698Z,13.60
2019-03-08T16:15:29.358Z,13.50
2019-03-08T16:17:56.914Z,13.30
2019-03-08T16:20:24.401Z,13.10
2019-03-08T16:22:52.237Z,12.90
2019-03-08T16:25:19.755Z,12.80
2019-03-08T16:27:47.275Z,12.70
2019-03-08T16:30:27.809Z,12.60
2019-03-08T16:33:10.994Z,12.50
2019-03-08T16:35:45.341Z,12.50
2019-03-08T16:38:20.983Z,12.50
2019-03-08T16:41:06.351Z,12.30
2019-03-08T16:43:42.123Z,12.00
2019-03-08T16:46:21.297Z,11.80
2019-03-08T16:48:58.587Z,11.70
2019-03-08T16:51:43.413Z,11.70
2019-03-08T16:54:17.466Z,11.60
2019-03-08T16:57:08.170Z,11.50
2019-03-08T16:59:49.040Z,11.40
2019-03-08T17:02:30.560Z,11.30
2019-03-08T17:05:27.141Z,11.10
2019-03-08T17:08:07.947Z,10.90
2019-03-08T17:11:01.019Z,10.70
2019-03-08T17:13:40.539Z,10.50
2019-03-08T17:16:32.165Z,10.40
2019-03-08T17:19:18.277Z,10.30
2019-03-08T17:22:11.496Z,10.10
2019-03-08T17:24:51.943Z,10.00
2019-03-08T17:27:51.122Z,10.00
2019-03-08T17:30:49.671Z,9.80
2019-03-08T17:33:29.461Z,9.60
2019-03-08T17:36:02.410Z,9.60
2019-03-08T17:38:39.023Z,9.60
2019-03-08T17:41:26.310Z,9.60
2019-03-08T17:44:12.500Z,9.60
2019-03-08T17:46:57.338Z,9.50
2019-03-08T17:49:46.199Z,9.50
2019-03-08T17:52:42.698Z,9.40
2019-03-08T17:55:20.591Z,9.40
2019-03-08T17:58:10.305Z,9.40
2019-03-08T18:00:47.428Z,9.40
2019-03-08T18:03:33.063Z,9.40
2019-03-08T18:06:21.200Z,9.30
2019-03-08T18:09:01.941Z,9.20
2019-03-08T18:11:55.007Z,9.10
2019-03-08T18:14:29.402Z,9.10
2019-03-08T18:17:02.992Z,9.00
2019-03-08T18:19:50.309Z,8.90
2019-03-08T18:22:37.319Z,8.80
2019-03-08T18:25:21.779Z,8.70
2019-03-08T18:28:07.405Z,8.60
2019-03-08T18:30:54.000Z,8.40
2019-03-08T18:33:40.076Z,8.30
2019-03-08T18:36:23.091Z,8.30
2019-03-08T18:39:10.680Z,8.10
2019-03-08T18:42:00.044Z,8.10
2019-03-08T18:44:45.700Z,7.90
2019-03-08T18:47:46.154Z,7.80
2019-03-08T18:50:35.704Z,7.70
2019-03-08T18:53:35.004Z,7.50
2019-03-08T18:56:21.049Z,7.40
2019-03-08T18:59:12.284Z,7.30
2019-03-08T19:02:15.434Z,7.20
2019-03-08T19:05:00.931Z,7.20
2019-03-08T19:07:37.970Z,7.20
2019-03-08T19:10:17.575Z,7.20
2019-03-08T19:13:15.481Z,7.10
2019-03-08T19:16:14.963Z,7.10
2019-03-08T19:19:04.837Z,7.10
2019-03-08T19:21:45.583Z,7.00
2019-03-08T19:24:32.588Z,7.00
2019-03-08T19:27:36.018Z,7.00
2019-03-08T19:30:24.271Z,6.90
2019-03-08T19:33:14.430Z,6.90
2019-03-08T19:35:48.467Z,6.90
2019-03-08T19:38:44.416Z,6.80
2019-03-08T19:41:29.971Z,6.80
2019-03-08T19:44:16.989Z,6.80
2019-03-08T19:47:02.516Z,6.80
2019-03-08T19:49:49.380Z,6.80
2019-03-08T19:52:29.583Z,6.80
2019-03-08T19:55:09.246Z,6.80
2019-03-08T19:57:56.363Z,6.70
2019-03-08T20:00:52.489Z,6.60
2019-03-08T20:03:28.884Z,6.60
2019-03-08T20:06:18.989Z,6.70
2019-03-08T20:08:52.365Z,6.80
2019-03-08T20:11:55.538Z,6.70
2019-03-08T20:14:43.394Z,6.70
2019-03-08T20:17:39.388Z,6.70
2019-03-08T20:20:26.790Z,6.70
2019-03-08T20:23:15.174Z,6.80
2019-03-08T20:26:08.203Z,6.80
2019-03-08T20:29:01.825Z,6.80
2019-03-08T20:31:40.237Z,6.80
2019-03-08T20:34:31.620Z,6.80
2019-03-08T20:37:31.106Z,6.80
2019-03-08T20:40:20.603Z,6.80
2019-03-08T20:42:54.827Z,6.70
2019-03-08T20:45:27.715Z,6.90
2019-03-08T20:47:55.447Z,6.80
2019-03-08T20:50:24.319Z,6.90
2019-03-08T20:52:51.819Z,6.90
2019-03-08T20:55:21.149Z,6.90
2019-03-08T20:57:49.799Z,7.10
2019-03-08T21:00:17.842Z,7.10
2019-03-08T21:02:45.673Z,7.10
2019-03-08T21:05:13.298Z,7.10
2019-03-08T21:07:41.943Z,7.20
2019-03-08T21:10:10.000Z,7.20
2019-03-08T21:12:37.886Z,7.20
2019-03-08T21:15:08.999Z,7.30
2019-03-08T21:17:36.834Z,7.30
2019-03-08T21:20:09.397Z,7.30
2019-03-08T21:22:38.877Z,7.20
2019-03-08T21:25:10.739Z,7.20
2019-03-08T21:27:38.486Z,7.10
2019-03-08T21:30:11.034Z,7.10
2019-03-08T21:32:38.734Z,7.10
2019-03-08T21:35:06.724Z,7.20
2019-03-08T21:37:35.626Z,7.20
2019-03-08T21:40:03.732Z,7.20
2019-03-08T21:42:52.738Z,7.30
2019-03-08T21:45:20.555Z,7.30
2019-03-08T21:47:48.137Z,7.40
2019-03-08T21:50:16.048Z,7.60
2019-03-08T21:52:44.091Z,7.70
2019-03-08T21:55:12.062Z,7.90
2019-03-08T21:57:39.654Z,8.10
2019-03-08T22:00:14.544Z,8.20
2019-03-08T22:02:42.844Z,8.40
2019-03-08T22:05:10.722Z,8.50
2019-03-08T22:07:38.384Z,8.60
2019-03-08T22:10:13.349Z,8.70
2019-03-08T22:12:41.135Z,8.80
2019-03-08T22:15:09.286Z,9.00
2019-03-08T22:17:36.995Z,9.00
2019-03-08T22:20:07.689Z,9.00
2019-03-08T22:22:35.006Z,9.10
2019-03-08T22:25:02.589Z,9.10
2019-03-08T22:27:30.362Z,9.10
2019-03-08T22:29:57.853Z,9.10
2019-03-08T22:32:25.414Z,9.20
2019-03-08T22:34:53.651Z,9.10
2019-03-08T22:37:21.145Z,9.10
2019-03-08T22:39:48.806Z,9.10
2019-03-08T22:42:16.331Z,9.20
2019-03-08T22:44:44.038Z,9.10
2019-03-08T22:47:12.091Z,9.10
2019-03-08T22:49:39.759Z,9.10
2019-03-08T22:52:07.412Z,9.10
2019-03-08T22:54:34.922Z,9.10
2019-03-08T22:57:02.477Z,9.10
2019-03-08T22:59:30.264Z,9.10
2019-03-08T23:02:05.546Z,9.10
2019-03-08T23:04:33.083Z,9.00
2019-03-08T23:07:00.700Z,9.10
2019-03-08T23:09:28.736Z,9.10
2019-03-08T23:11:56.309Z,9.00
2019-03-08T23:14:24.104Z,9.00
2019-03-08T23:16:51.996Z,9.00
2019-03-08T23:19:19.682Z,8.90
2019-03-08T23:21:47.144Z,8.90
2019-03-08T23:24:14.768Z,8.90
2019-03-08T23:27:00.252Z,8.80
2019-03-08T23:29:31.333Z,8.70
2019-03-08T23:32:08.588Z,8.50
2019-03-08T23:34:36.112Z,8.40
2019-03-08T23:37:03.718Z,8.20
2019-03-08T23:39:31.094Z,8.10
2019-03-08T23:41:58.457Z,8.10
2019-03-08T23:44:26.037Z,8.10
2019-03-08T23:46:53.480Z,8.10
2019-03-08T23:49:20.968Z,8.20
2019-03-08T23:51:48.338Z,8.20
2019-03-08T23:54:15.746Z,8.20
2019-03-08T23:56:43.568Z,8.20
2019-03-08T23:59:11.109Z,8.20
